createdAt,value
2022-11-28T00:00:45.670Z,108.63
2022-11-28T00:06:40.308Z,109.38
2022-11-28T00:12:34.120Z,124.03
2022-11-28T00:18:27.018Z,127.18
2022-11-28T00:24:19.723Z,117.10
2022-11-28T00:30:11.931Z,119.18
2022-11-28T00:36:05.737Z,127.43
2022-11-28T00:41:57.330Z,135.93
2022-11-28T00:47:50.022Z,120.07
2022-11-28T00:53:43.919Z,131.93
2022-11-28T00:59:36.668Z,120.05
2022-11-28T01:05:28.810Z,121.10
2022-11-28T01:11:21.348Z,116.90
2022-11-28T01:17:13.623Z,120.10
2022-11-28T01:23:05.941Z,119.32
2022-11-28T01:29:00.232Z,122.30
2022-11-28T01:34:53.029Z,114.72
2022-11-28T01:40:46.870Z,122.03
2022-11-28T01:46:38.891Z,127.28
2022-11-28T01:52:31.159Z,127.07
2022-11-28T01:58:24.529Z,128.90
2022-11-28T02:04:16.900Z,131.63
2022-11-28T02:10:12.395Z,120.43
2022-11-28T02:16:26.463Z,130.25
2022-11-28T02:22:34.408Z,128.68
2022-11-28T02:28:49.038Z,114.13
2022-11-28T02:34:47.281Z,139.68
2022-11-28T02:40:57.579Z,127.97
2022-11-28T02:46:55.491Z,141.75
2022-11-28T02:52:55.911Z,116.88
2022-11-28T02:58:48.068Z,134.52
2022-11-28T03:04:52.119Z,135.18
2022-11-28T03:11:10.699Z,136.40
2022-11-28T03:17:21.979Z,148.30
2022-11-28T03:23:16.516Z,147.75
2022-11-28T03:29:37.267Z,172.63
2022-11-28T03:35:34.381Z,180.32
2022-11-28T03:41:39.129Z,150.10
2022-11-28T03:47:37.909Z,177.98
2022-11-28T03:53:42.839Z,170.95
2022-11-28T03:59:49.298Z,167.38
2022-11-28T04:06:06.119Z,166.40
2022-11-28T04:12:05.049Z,151.77
2022-11-28T04:18:11.094Z,150.23
2022-11-28T04:24:08.540Z,144.43
2022-11-28T04:30:03.621Z,168.35
2022-11-28T04:35:57.219Z,152.88
2022-11-28T04:41:54.339Z,165.50
2022-11-28T04:47:46.259Z,167.90
2022-11-28T04:54:05.019Z,155.45
2022-11-28T04:59:57.850Z,137.23
2022-11-28T05:05:51.961Z,125.47
2022-11-28T05:11:44.184Z,127.35
2022-11-28T05:17:41.698Z,124.97
2022-11-28T05:23:34.085Z,120.88
2022-11-28T05:29:26.190Z,124.35
2022-11-28T05:35:18.563Z,126.10
2022-11-28T05:41:22.421Z,128.05
2022-11-28T05:47:16.096Z,127.70
2022-11-28T05:53:09.306Z,125.78
2022-11-28T05:59:01.501Z,130.25
2022-11-28T06:04:53.687Z,132.60
2022-11-28T06:10:46.507Z,144.45
2022-11-28T06:16:38.590Z,133.88
2022-11-28T06:22:31.308Z,131.77
2022-11-28T06:28:23.539Z,123.35
2022-11-28T06:34:15.577Z,140.07
2022-11-28T06:40:08.230Z,123.10
2022-11-28T06:46:00.980Z,128.73
2022-11-28T06:51:53.909Z,144.63
2022-11-28T06:57:46.780Z,138.40
2022-11-28T07:03:45.024Z,134.27
2022-11-28T07:09:38.308Z,119.82
2022-11-28T07:15:31.290Z,145.60
2022-11-28T07:21:24.807Z,126.80
2022-11-28T07:27:18.221Z,130.60
2022-11-28T07:33:11.745Z,138.52
2022-11-28T07:39:06.063Z,143.75
2022-11-28T07:44:58.685Z,138.80
2022-11-28T07:50:50.667Z,132.57
2022-11-28T07:57:11.844Z,134.43
2022-11-28T08:02:54.700Z,126.65
2022-11-28T08:08:47.543Z,116.82
2022-11-28T08:14:39.647Z,99.75
2022-11-28T08:20:31.705Z,107.40
2022-11-28T08:26:29.092Z,103.03
2022-11-28T08:32:23.139Z,106.13
2022-11-28T08:38:16.081Z,102.27
2022-11-28T08:44:09.185Z,87.00
2022-11-28T08:50:02.303Z,99.13
2022-11-28T08:55:54.951Z,104.57
2022-11-28T09:01:46.989Z,100.45
2022-11-28T09:07:39.715Z,101.93
2022-11-28T09:13:32.223Z,78.97
2022-11-28T09:19:24.784Z,70.90
2022-11-28T09:25:17.268Z,79.38
2022-11-28T09:31:13.020Z,80.10
2022-11-28T09:37:05.250Z,68.43
2022-11-28T09:43:06.383Z,76.65
2022-11-28T09:49:03.546Z,73.65
2022-11-28T09:55:28.492Z,74.18
2022-11-28T10:01:43.330Z,72.05
2022-11-28T10:08:04.799Z,71.03
2022-11-28T10:14:29.229Z,65.72
2022-11-28T10:20:25.932Z,71.93
2022-11-28T10:26:17.913Z,71.15
2022-11-28T10:32:16.683Z,69.63
2022-11-28T10:38:14.215Z,62.97
2022-11-28T10:44:33.803Z,58.40
2022-11-28T10:50:44.301Z,60.45
2022-11-28T10:57:03.153Z,64.72
2022-11-28T11:02:57.125Z,61.17
2022-11-28T11:08:49.583Z,54.35
2022-11-28T11:14:43.884Z,61.50
2022-11-28T11:20:39.403Z,58.03
2022-11-28T11:26:42.481Z,50.33
2022-11-28T11:32:35.604Z,47.28
2022-11-28T11:38:37.922Z,45.33
2022-11-28T11:44:34.931Z,42.17
2022-11-28T11:50:33.371Z,39.45
2022-11-28T11:56:26.101Z,44.97
2022-11-28T12:02:33.102Z,42.50
2022-11-28T12:08:34.162Z,42.72
2022-11-28T12:14:33.128Z,47.53
2022-11-28T12:20:50.282Z,47.20
2022-11-28T12:26:47.909Z,45.45
2022-11-28T12:32:59.586Z,47.63
2022-11-28T12:39:05.066Z,44.67
2022-11-28T12:45:09.383Z,45.15
2022-11-28T12:51:23.197Z,38.38
2022-11-28T12:57:34.701Z,49.88
2022-11-28T13:04:01.745Z,39.13
2022-11-28T13:10:45.544Z,39.17
2022-11-28T13:16:55.943Z,53.70
2022-11-28T13:22:57.823Z,45.30
2022-11-28T13:28:57.785Z,50.90
2022-11-28T13:34:51.223Z,40.88
2022-11-28T13:40:49.634Z,43.22
2022-11-28T13:46:44.218Z,42.50
2022-11-28T13:52:43.226Z,35.88
2022-11-28T13:58:49.542Z,39.22
2022-11-28T14:04:44.637Z,36.28
2022-11-28T14:10:50.327Z,42.28
2022-11-28T14:17:12.183Z,40.60
2022-11-28T14:23:20.141Z,43.08
2022-11-28T14:29:35.367Z,43.58
2022-11-28T14:35:52.710Z,52.85
2022-11-28T14:42:06.994Z,53.28
2022-11-28T14:48:19.835Z,56.95
2022-11-28T14:54:26.100Z,47.80
2022-11-28T15:00:38.804Z,46.70
2022-11-28T15:06:38.311Z,48.63
2022-11-28T15:12:44.363Z,45.65
2022-11-28T15:18:41.217Z,52.65
2022-11-28T15:24:36.485Z,63.40
2022-11-28T15:30:28.778Z,61.03
2022-11-28T15:36:28.700Z,58.25
2022-11-28T15:42:24.611Z,56.00
2022-11-28T15:48:27.745Z,65.18
2022-11-28T15:54:34.771Z,54.83
2022-11-28T16:00:27.096Z,61.22
2022-11-28T16:06:22.774Z,75.43
2022-11-28T16:12:15.441Z,75.78
2022-11-28T16:18:18.203Z,79.75
2022-11-28T16:24:26.209Z,73.57
2022-11-28T16:30:27.323Z,85.15
2022-11-28T16:36:25.060Z,77.13
2022-11-28T16:42:20.562Z,60.90
2022-11-28T16:48:19.681Z,91.30
2022-11-28T16:54:23.026Z,70.30
2022-11-28T17:00:15.765Z,68.05
2022-11-28T17:06:40.921Z,63.20
2022-11-28T17:12:37.480Z,70.20
2022-11-28T17:18:30.262Z,65.80
2022-11-28T17:24:27.683Z,60.07
2022-11-28T17:30:21.623Z,56.65
2022-11-28T17:36:14.169Z,66.88
2022-11-28T17:42:06.741Z,51.05
2022-11-28T17:47:59.955Z,45.50
2022-11-28T17:53:53.404Z,51.90
2022-11-28T17:59:46.219Z,53.97
2022-11-28T18:05:43.583Z,50.83
2022-11-28T18:11:38.809Z,54.70
2022-11-28T18:17:31.522Z,55.42
2022-11-28T18:23:26.159Z,61.08
2022-11-28T18:29:18.160Z,63.40
2022-11-28T18:35:10.967Z,51.10
2022-11-28T18:41:15.701Z,58.88
2022-11-28T18:47:11.068Z,58.38
2022-11-28T18:53:04.532Z,61.03
2022-11-28T18:58:58.547Z,58.75
2022-11-28T19:04:51.877Z,48.00
2022-11-28T19:10:44.982Z,55.42
2022-11-28T19:16:38.579Z,65.22
2022-11-28T19:22:32.186Z,60.63
2022-11-28T19:28:24.862Z,61.67
2022-11-28T19:34:19.256Z,70.13
2022-11-28T19:40:12.122Z,61.28
2022-11-28T19:46:05.718Z,58.30
2022-11-28T19:51:59.906Z,66.57
2022-11-28T19:57:53.084Z,58.73
2022-11-28T20:03:48.031Z,65.57
2022-11-28T20:09:40.734Z,73.57
2022-11-28T20:15:37.529Z,76.38
2022-11-28T20:21:30.403Z,65.82
2022-11-28T20:27:22.574Z,74.67
2022-11-28T20:33:14.826Z,65.75
2022-11-28T20:39:10.499Z,64.30
2022-11-28T20:45:03.785Z,75.95
2022-11-28T20:50:56.685Z,74.57
2022-11-28T21:03:01.846Z,77.78
2022-11-28T21:08:53.724Z,81.88
2022-11-28T21:14:46.221Z,76.43
2022-11-28T21:20:45.605Z,78.40
2022-11-28T21:26:42.451Z,89.95
2022-11-28T21:32:36.523Z,85.20
2022-11-28T21:38:29.882Z,81.45
2022-11-28T21:50:15.068Z,78.22
2022-11-28T21:56:10.242Z,83.38
2022-11-28T22:02:07.180Z,83.88
2022-11-28T22:08:03.302Z,88.47
2022-11-28T22:13:56.148Z,84.67
2022-11-28T22:19:48.826Z,94.43
2022-11-28T22:25:49.648Z,79.50
2022-11-28T22:31:42.269Z,89.13
2022-11-28T22:37:34.687Z,90.33
2022-11-28T22:43:27.128Z,82.13
2022-11-28T22:49:20.141Z,91.80
2022-11-28T22:55:13.410Z,102.10
2022-11-28T23:01:11.448Z,101.72
2022-11-28T23:07:03.948Z,102.35
2022-11-28T23:12:56.950Z,97.70
2022-11-28T23:18:51.903Z,96.18
2022-11-28T23:24:45.187Z,85.80
2022-11-28T23:30:37.900Z,95.22
2022-11-28T23:36:36.987Z,92.32
2022-11-28T23:42:33.344Z,104.18
2022-11-28T23:48:26.784Z,91.75
2022-11-28T23:54:19.101Z,91.03
